Time;durP1;ratioP1;P1;durP2;ratioP2;P2;SDS_P1;SDS_P2;PMS_P1;PMS_P2;Temp;Humidity;BMP_temperature;BMP_pressure;BME280_temperature;BME280_humidity;BME280_pressure;Samples;Min_cycle;Max_cycle;Signal;HPM_P1;HPM_P2
2021/08/12 00:03:55;;;;;;;10.80;6.80;;;;;;;16.39;79.57;100761.88;2915185;81;20991;-60
2021/08/12 00:07:57;;;;;;;9.48;7.58;;;;;;;16.38;79.74;100768.24;2915440;81;20986;-61
2021/08/12 00:12:00;;;;;;;11.95;6.37;;;;;;;16.32;79.41;100768.86;2915251;81;20947;-60
2021/08/12 00:16:04;;;;;;;7.83;6.37;;;;;;;16.29;79.31;100771.82;2915101;81;21045;-60
2021/08/12 00:20:11;;;;;;;7.03;5.50;;;;;;;16.24;79.52;100772.78;2942443;79;21300;-59
2021/08/12 00:24:21;;;;;;;6.72;5.70;;;;;;;16.21;79.84;100779.80;2942130;80;20984;-62
2021/08/12 00:28:24;;;;;;;8.13;5.75;;;;;;;16.21;79.86;100781.14;2942453;80;20987;-62
2021/08/12 00:32:28;;;;;;;16.70;6.75;;;;;;;16.21;79.96;100782.48;2911090;81;21006;-61
2021/08/12 00:36:31;;;;;;;11.10;6.72;;;;;;;16.16;79.85;100778.07;2910303;81;20963;-62
2021/08/12 00:40:34;;;;;;;11.83;7.00;;;;;;;16.15;79.78;100789.80;3001737;79;20928;-63
2021/08/12 01:10:32;;;;;;;5.85;4.92;;;;;;;15.85;78.70;100793.94;2850849;82;21070;-60
2021/08/12 01:14:48;;;;;;;8.10;5.03;;;;;;;15.77;78.76;100796.02;2851772;82;20996;-59
2021/08/12 01:23:39;;;;;;;7.10;6.40;;;;;;;15.62;78.80;100802.33;2878224;82;21038;-59
2021/08/12 01:27:55;;;;;;;7.87;6.45;;;;;;;15.55;79.57;100796.73;2881700;82;21062;-60
2021/08/12 01:32:13;;;;;;;8.10;5.28;;;;;;;15.49;79.88;100796.47;2882039;82;21022;-59
2021/08/12 01:36:18;;;;;;;6.85;5.17;;;;;;;15.47;80.51;100796.60;2898924;82;21081;-59
2021/08/12 01:40:22;;;;;;;11.75;6.60;;;;;;;15.49;81.06;100793.28;2900384;82;21026;-60
2021/08/12 01:44:26;;;;;;;6.42;5.80;;;;;;;15.50;80.85;100788.77;2900378;82;21034;-60
2021/08/12 01:48:31;;;;;;;9.03;5.75;;;;;;;15.50;80.90;100800.84;2900416;82;21358;-59
2021/08/12 01:52:51;;;;;;;6.47;5.75;;;;;;;15.47;81.19;100799.28;2900741;82;21014;-59
2021/08/12 01:56:55;;;;;;;8.08;6.22;;;;;;;15.40;81.42;100802.20;2961733;80;20963;-59
2021/08/12 02:00:58;;;;;;;8.95;6.17;;;;;;;15.38;81.66;100801.51;2961412;80;20982;-59
2021/08/12 02:05:03;;;;;;;8.80;5.97;;;;;;;15.42;81.69;100802.39;2960952;80;20967;-59
2021/08/12 02:09:49;;;;;;;9.28;5.72;;;;;;;15.46;81.49;100800.79;2931208;80;20984;-62
2021/08/12 02:13:52;;;;;;;9.97;6.17;;;;;;;15.42;81.54;100801.05;2917719;81;21039;-59
2021/08/12 02:17:59;;;;;;;6.60;5.10;;;;;;;15.43;81.53;100803.25;2917370;80;20971;-59
2021/08/12 02:22:35;;;;;;;8.90;6.50;;;;;;;15.43;81.66;100808.61;2917318;81;21026;-59
2021/08/12 02:26:51;;;;;;;7.53;5.65;;;;;;;15.42;81.08;100801.56;2917402;80;21031;-59
2021/08/12 02:30:57;;;;;;;9.30;5.03;;;;;;;15.40;81.10;100806.23;2917033;80;20952;-59
2021/08/12 02:35:21;;;;;;;6.78;5.30;;;;;;;15.35;81.10;100804.48;2917191;81;21034;-59
2021/08/12 02:39:27;;;;;;;6.28;5.33;;;;;;;15.32;81.36;100804.27;2917086;80;20987;-60
2021/08/12 02:43:35;;;;;;;;;;;;;;;15.32;81.39;100810.11;2920080;80;20988;-59
2021/08/12 02:47:41;;;;;;;7.58;4.90;;;;;;;15.31;81.26;100809.75;2917438;80;20175;-59
2021/08/12 02:51:43;;;;;;;;;;;;;;;15.23;81.25;100807.31;2919648;81;21094;-60
2021/08/12 02:55:51;;;;;;;5.80;5.20;;;;;;;15.17;81.78;100803.02;2917330;81;20176;-59
2021/08/12 02:59:54;;;;;;;4.90;3.75;;;;;;;15.07;81.86;100814.61;2917387;81;20987;-60
2021/08/12 03:03:59;;;;;;;5.15;4.35;;;;;;;14.99;82.08;100813.97;2908539;81;21377;-59
2021/08/12 03:08:04;;;;;;;7.87;5.50;;;;;;;14.96;81.30;100811.58;2914994;80;21118;-59
2021/08/12 03:12:21;;;;;;;6.42;4.37;;;;;;;14.89;81.51;100798.89;2848374;82;21275;-61
2021/08/12 03:16:23;;;;;;;;;;;;;;;14.75;81.94;100812.22;2874762;83;20964;-56
2021/08/12 03:20:56;;;;;;;5.42;4.65;;;;;;;14.64;82.84;100809.13;2872355;83;20085;-60
2021/08/12 03:25:01;;;;;;;5.67;5.17;;;;;;;14.49;84.01;100808.69;2872183;83;21062;-56
2021/08/12 03:29:14;;;;;;;5.20;4.62;;;;;;;14.29;85.01;100811.33;2872059;83;21019;-58
2021/08/12 03:33:17;;;;;;;12.43;6.15;;;;;;;14.17;85.72;100812.44;2872052;83;21014;-57
2021/08/12 03:37:20;;;;;;;8.60;5.17;;;;;;;14.24;86.35;100814.91;2872341;83;21022;-56
2021/08/12 03:41:25;;;;;;;7.90;6.28;;;;;;;14.36;85.96;100809.81;2872092;83;20999;-57
2021/08/12 03:45:35;;;;;;;9.05;5.83;;;;;;;14.52;85.39;100813.77;2871562;82;21026;-58
2021/08/12 03:49:37;;;;;;;6.53;5.47;;;;;;;14.59;84.50;100810.91;2872386;81;21018;-56
2021/08/12 03:53:41;;;;;;;9.38;5.15;;;;;;;14.64;83.99;100814.48;2876474;81;20991;-56
2021/08/12 03:57:58;;;;;;;4.37;3.50;;;;;;;14.68;83.84;100815.41;2869819;83;21034;-56
2021/08/12 04:02:02;;;;;;;6.03;5.42;;;;;;;14.77;83.79;100820.95;2876929;81;20988;-56
2021/08/12 04:06:43;;;;;;;7.55;5.08;;;;;;;14.85;83.93;100819.75;2872319;81;21034;-57
2021/08/12 04:10:46;;;;;;;6.58;4.12;;;;;;;14.95;85.07;100821.95;2843795;83;20998;-56
2021/08/12 04:15:12;;;;;;;7.70;5.25;;;;;;;15.15;88.16;100824.61;2839835;84;21039;-57
2021/08/12 04:19:20;;;;;;;4.67;4.28;;;;;;;15.79;92.32;100826.70;2839541;84;21052;-56
2021/08/12 04:23:26;;;;;;;5.53;4.45;;;;;;;16.79;91.81;100826.86;2839520;82;21008;-56
2021/08/12 04:27:30;;;;;;;5.25;4.62;;;;;;;17.60;87.89;100820.14;2840011;82;21035;-58
2021/08/12 04:31:34;;;;;;;9.05;4.78;;;;;;;18.29;84.50;100817.95;2840071;84;20937;-57
2021/08/12 04:35:41;;;;;;;9.75;4.40;;;;;;;18.90;81.25;100828.50;2839898;84;21051;-58
2021/08/12 04:39:46;;;;;;;4.53;3.70;;;;;;;19.41;78.54;100823.44;2839899;84;21569;-57
2021/08/12 04:43:52;;;;;;;4.23;2.93;;;;;;;19.88;76.37;100819.11;2840197;84;21047;-60
2021/08/12 04:48:03;;;;;;;4.67;3.52;;;;;;;20.14;73.82;100823.94;2839805;83;21055;-57
2021/08/12 04:52:09;;;;;;;3.67;3.00;;;;;;;20.44;72.55;100825.45;2831428;80;70300;-72
2021/08/12 04:56:11;;;;;;;5.20;3.10;;;;;;;20.66;71.91;100827.86;2844687;83;21023;-72
2021/08/12 05:00:16;;;;;;;4.65;3.35;;;;;;;20.89;71.31;100833.31;2860522;83;21003;-71
2021/08/12 05:04:21;;;;;;;6.17;3.70;;;;;;;21.07;70.27;100830.81;2860692;83;21039;-71
2021/08/12 05:08:25;;;;;;;5.60;3.75;;;;;;;21.36;70.04;100827.83;2860973;82;21065;-72
2021/08/12 05:12:27;;;;;;;5.65;4.17;;;;;;;21.66;68.51;100837.37;2860643;82;21055;-71
2021/08/12 05:16:29;;;;;;;5.00;3.12;;;;;;;21.86;67.92;100835.47;2860635;83;21007;-71
2021/08/12 05:20:30;;;;;;;5.37;3.67;;;;;;;22.06;66.91;100833.87;2860455;82;21450;-71
2021/08/12 05:24:32;;;;;;;5.35;3.95;;;;;;;22.27;67.24;100832.24;2860432;83;20991;-71
2021/08/12 05:28:34;;;;;;;4.37;3.75;;;;;;;22.62;66.00;100836.53;2860326;83;20999;-71
2021/08/12 05:32:36;;;;;;;4.17;3.80;;;;;;;22.84;65.24;100835.18;2866140;83;21045;-71
2021/08/12 05:36:38;;;;;;;5.35;4.10;;;;;;;23.07;64.82;100836.84;2873524;82;21066;-71
2021/08/12 05:40:42;;;;;;;5.42;3.80;;;;;;;23.04;63.88;100834.52;2874171;82;21007;-71
2021/08/12 05:44:44;;;;;;;14.20;4.72;;;;;;;22.81;63.56;100840.46;2873859;82;21049;-71
2021/08/12 05:48:45;;;;;;;4.12;3.60;;;;;;;22.63;65.20;100842.27;2873653;82;21092;-71
2021/08/12 05:52:48;;;;;;;3.10;2.90;;;;;;;22.63;64.60;100839.56;2874122;82;21232;-71
2021/08/12 05:56:50;;;;;;;4.97;4.58;;;;;;;22.75;64.99;100841.75;2876100;82;21034;-71
2021/08/12 06:00:52;;;;;;;8.68;3.60;;;;;;;22.59;65.04;100847.73;2875987;82;21026;-71
2021/08/12 06:04:54;;;;;;;5.90;3.80;;;;;;;22.39;65.63;100848.84;2875895;82;21211;-71
2021/08/12 06:08:55;;;;;;;7.75;3.98;;;;;;;22.67;68.04;100845.42;2875653;82;21014;-71
2021/08/12 06:12:58;;;;;;;5.85;4.30;;;;;;;23.51;66.20;100850.68;2875995;83;21065;-71
2021/08/12 06:17:00;;;;;;;4.22;3.27;;;;;;;24.28;64.01;100845.80;2875809;82;21049;-71
2021/08/12 06:21:02;;;;;;;5.85;3.20;;;;;;;25.10;61.86;100849.02;2875806;82;21074;-71
2021/08/12 06:25:05;;;;;;;5.50;4.45;;;;;;;25.64;59.60;100854.47;2876162;82;21026;-71
2021/08/12 06:29:10;;;;;;;4.72;4.08;;;;;;;26.09;59.10;100847.72;2815372;81;21043;-71
2021/08/12 06:33:13;;;;;;;5.62;3.90;;;;;;;26.60;58.43;100847.94;2841961;82;21061;-71
2021/08/12 06:41:42;;;;;;;9.83;4.17;;;;;;;27.48;55.93;100843.19;2838743;80;21035;-57
2021/08/12 06:45:47;;;;;;;6.10;4.03;;;;;;;27.49;52.50;100841.58;2915058;81;21013;-57
2021/08/12 06:49:51;;;;;;;6.37;4.70;;;;;;;27.03;54.45;100841.47;2843291;83;21043;-56
2021/08/12 06:53:56;;;;;;;7.03;5.17;;;;;;;27.17;53.80;100847.14;2843468;83;20995;-58
2021/08/12 06:58:00;;;;;;;5.62;4.30;;;;;;;27.25;53.94;100850.64;2843419;83;21756;-57
2021/08/12 07:02:05;;;;;;;5.05;3.98;;;;;;;27.17;53.70;100858.58;2843497;82;20980;-59
2021/08/12 07:06:21;;;;;;;4.30;3.90;;;;;;;27.29;54.06;100862.27;2843725;83;21062;-57
2021/08/12 07:10:23;;;;;;;6.62;4.28;;;;;;;26.99;54.66;100863.45;2872139;81;20996;-57
2021/08/12 07:14:28;;;;;;;4.47;3.72;;;;;;;26.91;53.54;100855.83;2898639;80;20999;-58
2021/08/12 07:18:33;;;;;;;6.95;4.40;;;;;;;26.75;54.50;100861.27;2844120;83;21070;-58
2021/08/12 07:22:59;;;;;;;5.05;4.40;;;;;;;26.82;54.07;100861.23;2883138;81;20951;-57
2021/08/12 07:27:04;;;;;;;7.40;4.42;;;;;;;27.11;54.04;100857.56;2906239;81;20982;-58
2021/08/12 07:31:08;;;;;;;5.80;4.67;;;;;;;27.46;52.75;100863.06;2890856;82;20960;-59
2021/08/12 07:35:25;;;;;;;5.47;3.87;;;;;;;27.89;51.95;100856.76;2844126;83;21035;-57
2021/08/12 07:39:30;;;;;;;7.40;3.62;;;;;;;28.21;50.55;100863.98;2839467;83;20973;-58
2021/08/12 07:43:57;;;;;;;4.75;4.28;;;;;;;28.49;51.10;100873.49;2862205;82;20964;-57
2021/08/12 07:47:59;;;;;;;13.28;4.20;;;;;;;28.67;50.84;100873.14;2830136;84;20999;-58
2021/08/12 07:52:04;;;;;;;8.45;4.62;;;;;;;28.87;50.37;100867.42;2830565;84;21000;-58
2021/08/12 07:56:09;;;;;;;5.60;3.65;;;;;;;29.04;50.71;100868.94;2830500;83;20945;-58
2021/08/12 08:00:14;;;;;;;5.35;3.33;;;;;;;29.19;49.94;100872.06;2830499;82;20995;-61
2021/08/12 08:04:31;;;;;;;4.35;3.90;;;;;;;29.11;49.21;100866.94;2830547;84;20995;-57
2021/08/12 08:08:34;;;;;;;4.08;3.15;;;;;;;29.00;49.32;100876.80;2840168;83;21019;-58
2021/08/12 08:12:54;;;;;;;3.92;3.15;;;;;;;29.05;49.42;100870.60;2866879;83;21039;-58
2021/08/12 08:16:57;;;;;;;5.17;3.05;;;;;;;28.87;49.13;100872.89;2868962;82;20976;-58
2021/08/12 08:21:06;;;;;;;2.83;2.55;;;;;;;28.87;49.13;100872.89;2830210;82;21028;-58
2021/08/12 08:25:10;;;;;;;4.15;3.75;;;;;;;28.95;48.70;100873.91;2830276;81;21020;-57
2021/08/12 08:29:12;;;;;;;4.70;3.30;;;;;;;28.85;48.36;100876.41;2830503;82;21035;-57
2021/08/12 08:33:16;;;;;;;;;;;;;;;28.79;48.83;100879.50;2832546;84;20981;-59
2021/08/12 08:37:22;;;;;;;4.05;2.98;;;;;;;28.90;47.87;100882.00;2830423;83;20086;-59
2021/08/12 08:41:27;;;;;;;5.30;2.80;;;;;;;28.77;48.30;100880.28;2863095;81;20983;-59
2021/08/12 08:45:32;;;;;;;5.47;3.37;;;;;;;28.60;48.62;100882.30;2878415;81;20987;-58
2021/08/12 08:49:39;;;;;;;5.70;3.45;;;;;;;28.64;48.23;100868.45;2877833;81;20991;-57
2021/08/12 08:54:00;;;;;;;3.75;3.10;;;;;;;28.59;48.35;100876.52;2878346;83;20983;-59
2021/08/12 08:58:05;;;;;;;4.65;3.65;;;;;;;28.51;47.35;100876.86;2877768;80;20999;-58
2021/08/12 09:02:13;;;;;;;3.70;2.70;;;;;;;28.43;47.46;100877.16;2878264;82;21007;-58
2021/08/12 09:06:40;;;;;;;3.20;2.80;;;;;;;28.54;48.44;100878.28;2878130;82;20927;-59
2021/08/12 09:10:43;;;;;;;3.37;3.08;;;;;;;28.53;46.87;100873.88;2877839;82;21022;-58
2021/08/12 09:15:13;;;;;;;4.35;3.10;;;;;;;28.20;47.49;100871.37;2881139;81;21104;-58
2021/08/12 09:19:20;;;;;;;;;;;;;;;27.76;46.87;100874.14;2879666;79;20995;-58
2021/08/12 09:23:30;;;;;;;4.65;3.65;;;;;;;27.80;46.60;100871.25;2876443;82;20108;-56
2021/08/12 09:27:33;;;;;;;3.02;2.50;;;;;;;27.83;48.58;100869.12;2872433;79;21026;-57
2021/08/12 09:32:06;;;;;;;3.98;2.70;;;;;;;27.85;48.13;100867.00;2870724;82;21061;-57
2021/08/12 09:36:36;;;;;;;7.85;3.27;;;;;;;27.80;48.16;100864.42;2877796;83;20982;-58
2021/08/12 09:40:57;;;;;;;6.33;4.55;;;;;;;27.90;47.43;100861.67;2871677;82;21094;-57
2021/08/12 09:44:59;;;;;;;4.58;3.77;;;;;;;28.11;48.58;100856.84;2831223;82;20992;-59
2021/08/12 09:49:09;;;;;;;5.47;4.70;;;;;;;27.99;47.74;100860.33;2831856;82;20976;-58
2021/08/12 09:53:20;;;;;;;5.90;3.75;;;;;;;27.82;47.42;100864.20;2830098;82;21067;-58
2021/08/12 09:57:23;;;;;;;4.67;3.87;;;;;;;27.68;48.01;100854.47;2826957;84;20966;-59
2021/08/12 10:01:46;;;;;;;5.33;4.30;;;;;;;27.73;50.20;100856.84;2830104;82;21028;-58
2021/08/12 10:05:49;;;;;;;5.60;3.95;;;;;;;27.92;51.22;100853.56;2836469;82;21035;-59
2021/08/12 10:09:50;;;;;;;7.05;3.27;;;;;;;28.05;48.31;100849.02;2821569;84;21040;-59
2021/08/12 10:14:08;;;;;;;5.95;3.60;;;;;;;28.00;47.80;100840.64;2827866;84;20993;-57
2021/08/12 10:18:10;;;;;;;8.85;4.35;;;;;;;27.73;48.66;100845.91;2883761;82;21358;-60
2021/08/12 10:22:13;;;;;;;3.95;2.98;;;;;;;27.42;48.96;100845.46;2896926;81;20950;-58
2021/08/12 10:26:22;;;;;;;3.60;3.30;;;;;;;27.31;46.84;100843.76;2893155;79;20925;-58
2021/08/12 10:30:28;;;;;;;3.77;3.47;;;;;;;27.09;46.63;100837.84;2880977;81;21071;-58
2021/08/12 10:34:32;;;;;;;4.05;2.85;;;;;;;26.88;49.79;100842.62;2891610;82;21086;-57
2021/08/12 10:38:35;;;;;;;7.50;2.60;;;;;;;26.90;48.87;100841.88;2890389;81;21019;-57
2021/08/12 10:42:42;;;;;;;11.60;4.42;;;;;;;27.10;48.15;100835.42;2875286;81;21019;-59
2021/08/12 10:46:44;;;;;;;5.10;3.65;;;;;;;27.30;49.47;100835.77;2856304;82;20984;-57
2021/08/12 10:51:16;;;;;;;9.08;3.40;;;;;;;27.41;48.18;100836.42;2870899;82;20991;-62
2021/08/12 10:55:18;;;;;;;;;;;;;;;27.55;48.64;100837.69;2849058;82;21082;-57
2021/08/12 10:59:26;;;;;;;5.70;3.95;;;;;;;27.56;46.39;100833.90;2880811;81;20125;-56
2021/08/12 11:03:43;;;;;;;4.08;3.12;;;;;;;27.28;47.12;100839.27;2875289;82;21004;-58
2021/08/12 11:07:51;;;;;;;8.75;3.15;;;;;;;27.28;46.95;100829.19;2846515;82;21092;-60
2021/08/12 11:11:57;;;;;;;3.30;2.05;;;;;;;27.58;46.74;100829.04;2841584;80;21023;-57
2021/08/12 11:16:00;;;;;;;3.95;3.20;;;;;;;27.89;46.71;100825.84;2853474;82;20995;-57
2021/08/12 11:20:16;;;;;;;5.10;3.25;;;;;;;27.93;47.21;100822.43;2789071;82;21045;-58
2021/08/12 11:24:32;;;;;;;7.05;3.60;;;;;;;28.01;47.20;100824.57;2786263;85;20946;-57
2021/08/12 11:28:46;;;;;;;4.70;3.95;;;;;;;28.02;46.02;100823.50;2824827;82;21012;-58
2021/08/12 11:33:30;;;;;;;4.08;3.22;;;;;;;28.04;45.41;100827.66;2828014;83;21109;-60
2021/08/12 11:37:36;;;;;;;6.25;3.62;;;;;;;27.97;46.59;100831.02;2832457;84;21024;-60
2021/08/12 11:41:50;;;;;;;;;;;;;;;27.88;46.09;100822.29;2872245;82;20967;-57
2021/08/12 11:45:52;;;;;;;5.87;3.05;;;;;;;27.96;46.61;100813.47;2904174;80;20161;-59
2021/08/12 11:49:58;;;;;;;3.52;3.22;;;;;;;28.05;44.68;100812.10;2903322;81;20955;-59
2021/08/12 11:54:00;;;;;;;;;;;;;;;28.25;44.64;100809.12;2906143;82;21054;-59
2021/08/12 11:58:03;;;;;;;3.40;2.40;;;;;;;28.48;44.98;100813.00;2903311;82;20142;-57
2021/08/12 12:02:08;;;;;;;3.17;2.87;;;;;;;28.58;43.57;100811.92;2900854;81;20971;-57
2021/08/12 12:06:38;;;;;;;6.90;3.15;;;;;;;28.64;44.13;100808.79;2900860;82;21034;-58
2021/08/12 12:10:44;;;;;;;3.47;2.65;;;;;;;28.78;44.06;100812.14;2893602;82;21248;-57
2021/08/12 12:14:47;;;;;;;5.53;2.77;;;;;;;28.65;45.98;100809.91;2900853;80;20967;-60
2021/08/12 12:18:50;;;;;;;2.77;2.52;;;;;;;28.54;45.41;100803.03;2900910;82;20967;-58
2021/08/12 12:23:05;;;;;;;6.33;2.98;;;;;;;28.45;44.84;100804.75;2900812;80;20987;-59
2021/08/12 12:27:06;;;;;;;5.22;2.87;;;;;;;28.30;46.31;100795.61;2901145;80;20952;-60
2021/08/12 12:31:16;;;;;;;4.67;4.05;;;;;;;28.29;46.42;100798.56;2900734;82;21054;-58
2021/08/12 12:35:18;;;;;;;4.17;2.87;;;;;;;28.39;44.39;100786.51;2900825;82;20971;-56
2021/08/12 12:39:24;;;;;;;2.52;2.30;;;;;;;28.56;46.10;100785.33;2903448;82;21009;-59
2021/08/12 12:43:28;;;;;;;6.25;2.30;;;;;;;28.78;44.66;100782.86;2902324;82;21014;-58
2021/08/12 12:47:35;;;;;;;3.67;3.35;;;;;;;28.70;45.63;100783.21;2902160;82;21263;-61
2021/08/12 12:51:37;;;;;;;3.40;2.15;;;;;;;28.63;45.16;100777.84;2901983;82;20998;-59
2021/08/12 12:55:45;;;;;;;3.40;2.67;;;;;;;28.63;45.16;100777.84;2901947;82;20947;-58
2021/08/12 12:59:53;;;;;;;3.83;2.80;;;;;;;29.06;44.29;100766.84;2870780;82;21014;-61
2021/08/12 13:03:59;;;;;;;4.00;3.60;;;;;;;29.06;44.29;100766.84;2902201;80;20998;-59
2021/08/12 13:08:11;;;;;;;2.90;2.58;;;;;;;29.19;43.40;100778.94;2901246;80;20974;-61
2021/08/12 13:12:30;;;;;;;23.90;7.92;;;;;;;29.19;44.53;100741.14;2916311;80;21022;-57
2021/08/12 13:17:00;;;;;;;3.10;2.27;;;;;;;29.19;44.53;100741.14;2902409;82;20975;-61
2021/08/12 13:21:02;;;;;;;7.22;3.22;;;;;;;29.04;45.34;100765.73;2902090;82;20983;-57
2021/08/12 13:25:19;;;;;;;6.30;3.25;;;;;;;29.03;47.27;100759.11;2902011;81;20999;-57
2021/08/12 13:29:39;;;;;;;2.87;2.55;;;;;;;29.07;45.62;100759.77;2901354;82;21050;-58
2021/08/12 13:33:41;;;;;;;3.98;2.47;;;;;;;29.19;44.57;100759.77;2894279;82;21046;-60
2021/08/12 13:37:43;;;;;;;3.17;2.80;;;;;;;29.19;44.57;100759.77;2852422;81;21078;-61
2021/08/12 13:41:56;;;;;;;4.33;2.37;;;;;;;29.34;43.80;100756.53;2853148;83;20951;-63
2021/08/12 13:46:03;;;;;;;4.72;2.77;;;;;;;29.32;43.52;100730.47;2823311;80;21059;-62
2021/08/12 13:50:07;;;;;;;3.42;2.77;;;;;;;29.54;42.95;100745.74;2793875;83;21700;-61
2021/08/12 13:54:21;;;;;;;3.62;2.85;;;;;;;29.54;42.45;100743.55;2792295;83;21007;-63
2021/08/12 13:58:22;;;;;;;3.27;2.98;;;;;;;29.60;42.52;100746.16;2793410;85;21215;-62
2021/08/12 14:02:26;;;;;;;5.30;3.33;;;;;;;29.71;42.46;100740.36;2791394;83;21031;-59
2021/08/12 14:06:32;;;;;;;10.88;3.12;;;;;;;29.66;42.53;100740.78;2801618;83;21033;-58
2021/08/12 14:10:34;;;;;;;3.92;2.72;;;;;;;29.55;42.33;100736.45;2801455;81;20938;-57
2021/08/12 14:14:35;;;;;;;3.58;2.58;;;;;;;29.47;42.42;100737.65;2802067;83;21013;-58
2021/08/12 14:18:43;;;;;;;8.28;2.83;;;;;;;29.24;42.46;100702.05;2801243;83;20998;-58
2021/08/12 14:22:47;;;;;;;5.37;2.72;;;;;;;29.36;42.87;100726.98;2801645;84;21040;-59
2021/08/12 14:26:48;;;;;;;5.83;3.12;;;;;;;29.47;42.16;100749.98;2802036;83;20965;-58
2021/08/12 14:30:53;;;;;;;4.75;2.77;;;;;;;29.45;41.64;100743.09;2801548;85;20997;-58
2021/08/12 14:34:55;;;;;;;5.12;2.90;;;;;;;29.35;43.16;100736.83;2801848;84;21013;-57
2021/08/12 14:39:06;;;;;;;9.35;2.50;;;;;;;29.45;42.19;100720.62;2802288;81;21037;-58
2021/08/12 14:43:08;;;;;;;3.08;2.72;;;;;;;29.45;42.19;100720.62;2802211;83;21084;-57
2021/08/12 14:47:10;;;;;;;5.67;3.30;;;;;;;29.49;42.19;100728.68;2803231;83;21021;-58
2021/08/12 14:51:13;;;;;;;3.35;2.55;;;;;;;29.42;42.56;100726.59;2801503;85;39353;-57
2021/08/12 14:55:15;;;;;;;4.28;3.05;;;;;;;29.42;42.56;100726.59;2801727;85;21002;-57
2021/08/12 14:59:28;;;;;;;5.60;2.12;;;;;;;29.19;42.55;100702.25;2801968;85;21037;-58
2021/08/12 15:03:30;;;;;;;3.17;2.20;;;;;;;29.18;42.70;100703.32;2802057;84;21034;-59
2021/08/12 15:07:33;;;;;;;4.42;2.60;;;;;;;29.25;42.64;100719.63;2802066;84;21021;-59
2021/08/12 15:11:36;;;;;;;4.95;3.65;;;;;;;29.26;42.40;100720.45;2802009;85;20994;-58
2021/08/12 15:15:38;;;;;;;3.35;2.45;;;;;;;29.22;42.48;100717.38;2801844;85;21053;-59
2021/08/12 15:19:51;;;;;;;3.15;2.85;;;;;;;29.21;42.70;100701.47;2802125;85;21001;-61
2021/08/12 15:23:53;;;;;;;4.30;2.30;;;;;;;29.21;42.70;100701.47;2754825;84;21022;-58
2021/08/12 15:27:55;;;;;;;3.65;2.30;;;;;;;29.22;42.26;100705.88;2755080;85;20975;-57
2021/08/12 15:31:57;;;;;;;8.60;3.02;;;;;;;29.17;42.81;100701.66;2755237;86;21090;-57
2021/08/12 15:36:04;;;;;;;4.65;3.87;;;;;;;29.18;42.67;100707.43;2755146;84;20991;-58
2021/08/12 15:40:07;;;;;;;7.70;2.42;;;;;;;29.18;42.67;100707.43;2755302;85;21094;-57
2021/08/12 15:44:09;;;;;;;9.15;3.83;;;;;;;29.06;42.84;100702.49;2755355;85;21006;-57
2021/08/12 15:48:11;;;;;;;4.67;3.62;;;;;;;29.04;42.73;100704.64;2771881;86;21031;-58
2021/08/12 15:52:13;;;;;;;4.83;2.45;;;;;;;29.04;42.73;100704.64;2771721;86;21025;-58
2021/08/12 15:56:15;;;;;;;4.65;3.00;;;;;;;28.92;43.12;100689.07;2771961;86;21038;-58
2021/08/12 16:00:20;;;;;;;3.63;2.97;;;;;;;29.04;42.67;100700.53;2779245;84;21038;-59
2021/08/12 16:04:22;;;;;;;8.33;3.70;;;;;;;28.94;43.75;100691.55;2821414;83;20995;-58
2021/08/12 16:08:24;;;;;;;4.12;2.55;;;;;;;28.94;43.75;100691.55;2821335;84;21051;-59
2021/08/12 16:12:29;;;;;;;3.77;2.85;;;;;;;28.89;43.40;100688.19;2821581;83;21033;-57
2021/08/12 16:16:31;;;;;;;5.12;2.65;;;;;;;28.86;42.91;100687.27;2821734;83;21113;-57
2021/08/12 16:20:34;;;;;;;4.12;2.05;;;;;;;28.69;42.79;100663.86;2821575;84;21275;-57
2021/08/12 16:24:37;;;;;;;4.78;2.50;;;;;;;28.69;42.79;100663.86;2821779;84;21121;-58
2021/08/12 16:28:40;;;;;;;3.92;2.92;;;;;;;28.76;42.68;100680.17;2821556;84;21039;-58
2021/08/12 16:32:42;;;;;;;4.83;3.02;;;;;;;28.72;42.75;100683.91;2821667;82;20987;-58
2021/08/12 16:36:55;;;;;;;3.87;2.50;;;;;;;28.68;42.81;100682.73;2821466;84;21070;-59
2021/08/12 16:40:59;;;;;;;6.20;3.67;;;;;;;28.61;42.51;100671.89;2823008;84;21029;-57
2021/08/12 16:45:02;;;;;;;4.22;2.58;;;;;;;28.49;43.11;100674.63;2800050;83;21248;-63
2021/08/12 16:49:11;;;;;;;2.62;2.00;;;;;;;28.37;43.44;100673.77;2761511;85;21031;-63
2021/08/12 16:53:12;;;;;;;3.98;2.55;;;;;;;28.28;44.05;100678.73;2779118;85;21364;-64
2021/08/12 16:57:14;;;;;;;4.53;2.77;;;;;;;28.15;44.80;100672.91;2806528;83;20993;-64
2021/08/12 17:01:20;;;;;;;3.95;2.60;;;;;;;27.99;44.86;100672.21;2812840;84;21061;-64
2021/08/12 17:10:46;;;;;;;7.62;2.98;;;;;;;27.60;45.99;100676.64;2805888;85;21001;-65
2021/08/12 17:14:50;;;;;;;19.30;5.17;;;;;;;27.37;46.71;100674.06;2795026;85;21738;-66
2021/08/12 17:19:01;;;;;;;8.30;3.55;;;;;;;27.19;47.26;100678.47;2806617;85;20991;-65
2021/08/12 17:23:03;;;;;;;7.25;3.25;;;;;;;27.02;47.79;100680.13;2819466;83;21235;-65
2021/08/12 17:27:41;;;;;;;7.35;3.02;;;;;;;26.82;48.24;100674.30;2861018;83;20932;-64
2021/08/12 17:31:42;;;;;;;6.15;2.98;;;;;;;26.62;48.63;100673.95;2860798;81;21023;-66
2021/08/12 17:35:45;;;;;;;10.80;2.70;;;;;;;26.40;49.10;100683.59;2861062;83;20983;-65
2021/08/12 17:40:27;;;;;;;5.53;3.70;;;;;;;26.25;49.52;100683.38;2828066;82;20988;-71
2021/08/12 17:44:29;;;;;;;15.85;4.35;;;;;;;26.08;49.98;100687.14;2806708;85;20987;-64
2021/08/12 17:48:31;;;;;;;12.85;4.08;;;;;;;25.89;50.71;100685.67;2831182;84;21062;-65
2021/08/12 17:53:16;;;;;;;10.53;3.25;;;;;;;25.71;51.40;100686.38;2831507;84;21026;-65
2021/08/12 17:57:17;;;;;;;12.20;4.00;;;;;;;25.53;51.77;100686.56;2831246;84;21018;-66
2021/08/12 18:01:21;;;;;;;5.00;3.30;;;;;;;25.33;52.24;100683.05;2831317;84;21030;-64
2021/08/12 18:06:26;;;;;;;10.50;3.22;;;;;;;25.20;52.28;100689.36;2831411;84;21043;-63
2021/08/12 18:10:29;;;;;;;5.95;2.95;;;;;;;25.06;52.37;100697.58;2831515;84;20991;-63
2021/08/12 18:14:37;;;;;;;18.42;3.70;;;;;;;24.92;52.89;100707.63;2831582;84;20960;-64
2021/08/12 18:18:39;;;;;;;6.30;3.52;;;;;;;24.76;53.49;100708.05;2831420;84;20999;-63
2021/08/12 18:22:41;;;;;;;9.35;3.65;;;;;;;24.62;54.36;100712.13;2831157;84;21081;-65
2021/08/12 18:26:48;;;;;;;10.98;4.37;;;;;;;24.46;55.39;100711.17;2827444;82;21419;-63
2021/08/12 18:30:57;;;;;;;11.75;4.55;;;;;;;24.29;56.05;100720.25;2830682;84;20995;-71
2021/08/12 18:34:59;;;;;;;9.18;3.83;;;;;;;24.12;57.00;100719.78;2831291;84;20992;-65
2021/08/12 18:39:01;;;;;;;15.55;4.47;;;;;;;23.94;57.39;100719.80;2831317;84;21050;-63
2021/08/12 18:43:05;;;;;;;18.73;4.87;;;;;;;23.81;57.84;100720.59;2831150;84;21035;-64
2021/08/12 18:52:12;;;;;;;11.70;4.00;;;;;;;23.50;59.21;100734.98;2802726;83;21067;-65
2021/08/12 18:56:18;;;;;;;10.40;3.40;;;;;;;23.37;59.00;100739.82;2802541;84;21580;-65
2021/08/12 19:00:20;;;;;;;9.63;4.12;;;;;;;23.28;58.52;100739.64;2802286;84;21046;-70
2021/08/12 19:04:22;;;;;;;8.00;5.53;;;;;;;23.16;58.69;100743.94;2802709;83;21054;-63
2021/08/12 19:09:20;;;;;;;16.37;4.85;;;;;;;23.03;58.97;100748.75;2802592;84;21305;-62
2021/08/12 19:13:22;;;;;;;10.13;5.62;;;;;;;22.91;59.21;100747.92;2802922;83;20992;-63
2021/08/12 19:17:25;;;;;;;8.60;4.85;;;;;;;22.81;59.63;100756.93;2804806;80;20991;-63
2021/08/12 19:21:27;;;;;;;17.65;6.83;;;;;;;22.73;60.18;100748.91;2820675;84;21028;-73
2021/08/12 19:25:53;;;;;;;21.55;7.92;;;;;;;22.64;60.63;100743.64;2820685;80;21056;-69
2021/08/12 19:29:55;;;;;;;94.65;20.48;;;;;;;22.56;61.41;100741.05;2820318;84;21255;-71
2021/08/12 19:33:59;;;;;;;29.42;8.03;;;;;;;22.42;62.93;100744.65;2820371;84;21047;-65
2021/08/12 19:38:25;;;;;;;27.75;7.85;;;;;;;22.27;62.71;100750.95;2816130;84;21062;-63
2021/08/12 19:42:28;;;;;;;39.00;10.48;;;;;;;22.19;62.98;100755.12;2817892;84;21023;-65
2021/08/12 19:46:36;;;;;;;15.75;7.35;;;;;;;22.04;64.57;100750.61;2817998;83;20991;-69
2021/08/12 19:50:39;;;;;;;16.90;7.78;;;;;;;21.84;65.10;100754.41;2809179;84;20995;-63
2021/08/12 19:54:51;;;;;;;22.50;9.78;;;;;;;21.62;65.33;100752.14;2776213;84;20972;-65
2021/08/12 19:58:55;;;;;;;35.17;12.70;;;;;;;21.51;65.61;100751.56;2800106;84;21055;-64
2021/08/12 20:03:07;;;;;;;133.87;35.78;;;;;;;21.43;65.78;100749.46;2818637;83;21039;-63